Time;durP1;ratioP1;P1;durP2;ratioP2;P2;SDS_P1;SDS_P2;PMS_P1;PMS_P2;Temp;Humidity;BMP_temperature;BMP_pressure;BME280_temperature;BME280_humidity;BME280_pressure;Samples;Min_cycle;Max_cycle;Signal;HPM_P1;HPM_P2
2022/12/30 00:01:20;;;;;;;;;14.00;7.00;;;;;10.93;58.67;100721.91;5032866;28;45309;-48
2022/12/30 00:03:46;;;;;;;;;8.00;6.75;;;;;10.91;58.77;100723.72;5028821;28;45247;-44
2022/12/30 00:06:15;;;;;;;;;12.25;7.25;;;;;10.92;58.85;100709.69;5047245;28;45674;-44
2022/12/30 00:08:48;;;;;;;;;6.25;5.25;;;;;10.91;58.69;100715.00;5058193;28;45452;-44
2022/12/30 00:11:23;;;;;;;;;7.00;5.00;;;;;10.91;59.04;100704.53;5046960;28;45797;-46
2022/12/30 00:33:49;;;;;;;;;5.25;4.25;;;;;10.67;59.12;100690.38;5044631;28;45283;-48
2022/12/30 00:36:15;;;;;;;;;6.00;5.00;;;;;10.64;59.50;100686.06;5044419;28;45416;-48
2022/12/30 00:38:40;;;;;;;;;7.75;5.00;;;;;10.60;59.19;100685.28;5053752;28;45342;-49
2022/12/30 00:43:49;;;;;;;;;10.00;6.00;;;;;10.61;59.08;100678.31;5053340;28;46019;-47
2022/12/30 00:46:15;;;;;;;;;10.50;5.00;;;;;10.62;59.04;100672.16;5045609;28;52423;-47
2022/12/30 00:56:52;;;;;;;;;8.25;6.00;;;;;10.52;59.30;100689.06;5040815;28;45478;-51
2022/12/30 00:59:17;;;;;;;;;11.75;5.25;;;;;10.51;59.45;100688.19;5046731;28;54696;-47
2022/12/30 01:01:43;;;;;;;;;4.75;4.00;;;;;10.49;59.59;100673.44;5040976;28;50585;-49
2022/12/30 01:04:08;;;;;;;;;7.00;4.75;;;;;10.47;59.31;100675.25;5045241;28;55801;-49
2022/12/30 01:06:36;;;;;;;;;6.25;5.25;;;;;10.45;59.42;100670.03;5048900;28;45414;-54
2022/12/30 01:09:01;;;;;;;;;4.25;4.00;;;;;10.46;59.54;100666.50;5042168;28;45305;-49
2022/12/30 01:11:27;;;;;;;;;8.00;4.00;;;;;10.44;59.33;100663.94;5043808;28;46306;-46
2022/12/30 01:13:52;;;;;;;;;4.50;4.50;;;;;10.45;59.61;100656.97;5040026;28;57759;-45
2022/12/30 01:16:17;;;;;;;;;10.25;4.00;;;;;10.44;59.44;100661.31;5041147;28;45278;-45
2022/12/30 01:18:43;;;;;;;;;6.00;5.50;;;;;10.44;59.66;100653.47;5047251;28;45623;-44
2022/12/30 01:21:09;;;;;;;;;5.50;4.00;;;;;10.44;59.65;100655.22;5040636;28;46923;-44
2022/12/30 01:23:35;;;;;;;;;6.00;4.00;;;;;10.41;59.28;100657.94;5050900;28;45189;-43
2022/12/30 01:26:02;;;;;;;;;9.25;4.25;;;;;10.43;59.50;100654.38;5042670;28;45493;-43
2022/12/30 01:28:29;;;;;;;;;9.75;4.50;;;;;10.45;59.37;100646.50;5039876;28;45478;-45
2022/12/30 01:30:54;;;;;;;;;5.75;4.50;;;;;10.42;59.11;100639.56;5044465;28;45550;-43
2022/12/30 01:33:20;;;;;;;;;11.00;3.50;;;;;10.40;59.72;100637.91;5051807;28;66724;-44
2022/12/30 01:35:45;;;;;;;;;5.50;2.50;;;;;10.38;59.35;100643.19;5042079;28;56702;-43
2022/12/30 01:38:10;;;;;;;;;9.25;4.00;;;;;10.37;59.48;100644.06;5042708;28;46877;-44
2022/12/30 01:40:40;;;;;;;;;8.50;4.50;;;;;10.40;59.35;100656.22;5044944;28;45392;-43
2022/12/30 01:43:10;;;;;;;;;6.00;4.50;;;;;10.38;59.30;100650.19;5045500;28;45968;-43
2022/12/30 01:45:35;;;;;;;;;7.00;5.00;;;;;10.37;59.46;100653.69;5046941;28;45356;-43
2022/12/30 01:48:10;;;;;;;;;6.75;5.00;;;;;10.36;59.85;100646.75;5040540;28;45582;-43
2022/12/30 01:50:51;;;;;;;;;4.50;3.00;;;;;10.32;59.79;100652.94;5049892;28;45588;-43
2022/12/30 01:53:20;;;;;;;;;6.75;4.00;;;;;10.35;59.56;100652.88;5039131;28;45388;-43
2022/12/30 01:55:55;;;;;;;;;7.00;3.00;;;;;10.35;59.56;100647.66;5043730;28;45481;-43
2022/12/30 01:58:29;;;;;;;;;4.25;2.25;;;;;10.34;59.63;100643.31;5039363;28;45357;-44
2022/12/30 02:00:55;;;;;;;;;5.25;3.75;;;;;10.29;59.73;100630.34;5051622;28;45455;-46
2022/12/30 02:03:20;;;;;;;;;5.25;3.75;;;;;10.27;59.57;100635.59;5047068;28;62724;-44
2022/12/30 02:05:47;;;;;;;;;6.50;3.75;;;;;10.26;59.64;100636.50;5042145;28;49283;-44
2022/12/30 02:08:15;;;;;;;;;10.25;4.00;;;;;10.27;59.65;100640.84;5046225;28;54250;-43
2022/12/30 02:10:46;;;;;;;;;4.75;4.25;;;;;10.25;59.67;100641.75;5044531;28;45430;-43
2022/12/30 02:13:16;;;;;;;;;6.75;4.75;;;;;10.18;59.70;100640.22;5051483;28;45264;-47
2022/12/30 02:15:56;;;;;;;;;9.25;4.00;;;;;10.20;60.09;100635.81;5043925;28;45359;-43
2022/12/30 02:18:35;;;;;;;;;10.50;5.00;;;;;10.21;59.83;100646.22;5042393;28;45441;-45
2022/12/30 02:21:31;;;;;;;;;4.75;4.00;;;;;10.16;59.97;100648.09;5046246;28;45426;-43
2022/12/30 02:24:08;;;;;;;;;4.25;3.75;;;;;10.15;60.01;100646.41;5039879;28;45359;-44
2022/12/30 02:26:34;;;;;;;;;6.50;4.25;;;;;10.15;60.19;100635.94;5044034;28;45351;-47
2022/12/30 02:29:33;;;;;;;;;7.67;4.00;;;;;10.14;60.03;100641.19;5043764;28;45435;-47
2022/12/30 02:31:58;;;;;;;;;10.00;5.00;;;;;10.14;59.98;100639.44;5051027;28;45430;-46
2022/12/30 02:35:00;;;;;;;;;7.00;5.33;;;;;10.18;60.00;100632.38;5054906;28;45655;-43
2022/12/30 02:37:33;;;;;;;;;9.00;6.00;;;;;10.21;60.50;100627.91;5054653;28;45294;-43
2022/12/30 02:40:19;;;;;;;;;8.75;5.25;;;;;10.19;60.59;100621.88;5042078;28;45508;-48
2022/12/30 02:45:52;;;;;;;;;9.25;6.00;;;;;10.17;60.59;100615.81;5049030;28;46059;-47
2022/12/30 02:48:20;;;;;;;;;9.75;6.00;;;;;10.19;60.43;100618.41;5050056;28;45264;-45
2022/12/30 02:53:33;;;;;;;;;7.50;5.50;;;;;10.19;60.49;100607.94;5051184;28;45394;-45
2022/12/30 02:55:58;;;;;;;;;6.25;6.25;;;;;10.19;60.58;100605.34;5047618;28;45796;-47
2022/12/30 02:58:28;;;;;;;;;12.25;10.75;;;;;10.14;60.94;100601.97;5042087;28;45335;-44
2022/12/30 03:04:29;;;;;;;;;11.50;7.75;;;;;10.18;61.34;100600.97;5047671;28;45779;-47
2022/12/30 03:07:25;;;;;;;;;10.00;7.00;;;;;10.16;61.32;100600.19;5052446;28;45821;-44
2022/12/30 03:13:08;;;;;;;;;9.25;5.00;;;;;10.12;61.18;100586.31;5043404;28;45498;-50
2022/12/30 03:15:41;;;;;;;;;9.25;9.25;;;;;10.13;61.46;100581.94;5046720;28;46110;-45
2022/12/30 03:18:08;;;;;;;;;14.25;7.00;;;;;10.15;61.32;100577.56;5054726;28;45473;-47
2022/12/30 03:20:34;;;;;;;;;8.00;6.50;;;;;10.16;61.25;100569.66;5047651;28;45534;-45
2022/12/30 03:28:31;;;;;;;;;7.25;6.00;;;;;10.20;61.71;100554.75;5046867;28;45274;-47
2022/12/30 03:31:03;;;;;;;;;12.00;7.00;;;;;10.23;61.54;100563.38;5044075;28;45393;-45
2022/12/30 03:33:30;;;;;;;;;8.50;4.75;;;;;10.23;61.73;100567.72;5052655;28;45494;-43
2022/12/30 03:36:04;;;;;;;;;12.00;6.00;;;;;10.27;61.63;100562.38;5046331;28;46849;-47
2022/12/30 03:38:33;;;;;;;;;6.25;6.25;;;;;10.31;61.37;100562.28;5058287;28;45277;-45
2022/12/30 03:40:59;;;;;;;;;4.50;4.00;;;;;10.33;61.36;100556.13;5049136;28;45445;-44
2022/12/30 03:43:26;;;;;;;;;8.25;6.00;;;;;10.35;61.50;100559.56;5043992;28;45554;-44
2022/12/30 03:45:51;;;;;;;;;7.50;6.75;;;;;10.35;61.57;100553.47;5052177;28;47412;-46
2022/12/30 03:48:17;;;;;;;;;8.00;6.00;;;;;10.34;61.79;100550.00;5048553;28;45363;-46
2022/12/30 03:50:43;;;;;;;;;6.75;6.75;;;;;10.35;61.50;100548.25;5047294;28;61556;-47
2022/12/30 03:53:09;;;;;;;;;6.50;6.25;;;;;10.37;61.44;100543.81;5039792;28;45297;-46
2022/12/30 03:55:34;;;;;;;;;14.25;5.00;;;;;10.41;61.38;100542.81;5044402;28;61176;-45
2022/12/30 03:57:59;;;;;;;;;5.50;5.25;;;;;10.43;61.55;100541.88;5048414;28;45394;-46
2022/12/30 04:00:25;;;;;;;;;6.75;5.75;;;;;10.41;61.69;100521.91;5044342;28;64014;-47
2022/12/30 04:02:50;;;;;;;;;3.00;3.00;;;;;10.38;61.60;100515.00;5054678;28;64087;-47
2022/12/30 04:05:15;;;;;;;;;6.50;6.00;;;;;10.38;61.46;100512.41;5043558;28;48889;-48
2022/12/30 04:07:41;;;;;;;;;9.50;7.00;;;;;10.38;61.44;100511.53;5051871;28;58376;-48
2022/12/30 04:10:06;;;;;;;;;6.25;5.50;;;;;10.37;61.63;100502.81;5047303;28;58638;-49
2022/12/30 04:12:31;;;;;;;;;7.00;5.00;;;;;10.39;61.62;100497.53;5052179;28;45531;-46
2022/12/30 04:14:57;;;;;;;;;12.00;5.00;;;;;10.40;61.87;100500.13;5044362;28;45387;-45
2022/12/30 04:17:22;;;;;;;;;7.25;4.00;;;;;10.37;61.61;100500.19;5040430;28;63739;-46
2022/12/30 04:19:48;;;;;;;;;7.00;3.50;;;;;10.36;61.79;100503.75;5042885;28;47554;-46
2022/12/30 04:22:13;;;;;;;;;5.50;3.25;;;;;10.35;61.64;100495.94;5044439;28;62343;-44
2022/12/30 04:24:38;;;;;;;;;6.75;3.00;;;;;10.34;61.86;100492.47;5050682;28;62659;-44
2022/12/30 04:27:03;;;;;;;;;7.00;3.00;;;;;10.32;61.99;100493.41;5050605;28;65241;-45
2022/12/30 04:29:29;;;;;;;;;8.25;6.00;;;;;10.29;61.94;100494.34;5040030;28;47294;-46
2022/12/30 04:31:54;;;;;;;;;4.00;3.00;;;;;10.30;61.93;100500.41;5043515;28;62109;-45
2022/12/30 04:34:19;;;;;;;;;3.50;3.00;;;;;10.30;62.14;100495.19;5045188;28;67906;-44
2022/12/30 04:36:45;;;;;;;;;7.00;4.00;;;;;10.27;62.58;100490.91;5043337;28;45422;-46
2022/12/30 04:39:10;;;;;;;;;3.50;3.50;;;;;10.27;61.98;100496.13;5048881;28;53325;-45
2022/12/30 04:41:36;;;;;;;;;8.25;6.00;;;;;10.27;62.22;100502.22;5047433;28;46669;-46
2022/12/30 04:44:02;;;;;;;;;7.75;5.00;;;;;10.25;62.26;100493.56;5053683;28;45506;-46
2022/12/30 04:46:28;;;;;;;;;5.00;4.00;;;;;10.23;62.06;100492.75;5045607;28;45360;-45
2022/12/30 04:48:53;;;;;;;;;5.75;3.75;;;;;10.20;62.66;100481.53;5043328;28;45722;-44
2022/12/30 04:51:19;;;;;;;;;6.00;5.50;;;;;10.19;62.94;100474.56;5045633;28;45569;-46
2022/12/30 04:53:44;;;;;;;;;3.25;2.75;;;;;10.19;62.75;100479.81;5046671;28;56717;-44
2022/12/30 04:56:09;;;;;;;;;6.75;5.25;;;;;10.19;62.42;100475.41;5049861;28;61049;-46
2022/12/30 04:58:35;;;;;;;;;8.50;4.25;;;;;10.18;62.29;100465.88;5039310;28;50554;-48
2022/12/30 05:01:00;;;;;;;;;6.00;5.75;;;;;10.21;62.72;100463.16;5046805;28;58704;-45
2022/12/30 05:03:25;;;;;;;;;6.50;5.00;;;;;10.20;63.02;100450.16;5046677;28;52782;-47
2022/12/30 05:05:51;;;;;;;;;7.25;5.00;;;;;10.17;62.78;100450.25;5046064;28;56887;-48
2022/12/30 05:08:16;;;;;;;;;5.00;5.00;;;;;10.17;62.79;100447.63;5040262;28;56978;-48
2022/12/30 05:10:41;;;;;;;;;6.50;6.00;;;;;10.20;63.28;100444.94;5052835;28;45543;-48
2022/12/30 05:13:07;;;;;;;;;8.00;4.50;;;;;10.19;62.96;100437.97;5042874;28;46161;-44
2022/12/30 05:15:32;;;;;;;;;8.75;4.00;;;;;10.17;63.53;100435.41;5047431;28;64317;-45
2022/12/30 05:17:58;;;;;;;;;9.75;4.00;;;;;10.18;63.26;100423.16;5053057;28;45482;-46
2022/12/30 05:20:23;;;;;;;;;6.00;4.50;;;;;10.20;63.25;100405.69;5041761;28;46919;-47
2022/12/30 05:22:49;;;;;;;;;6.00;4.25;;;;;10.19;63.43;100399.59;5052989;28;45304;-50
2022/12/30 05:27:58;;;;;;;;;5.00;5.00;;;;;10.21;63.38;100394.31;5049322;28;45529;-47
2022/12/30 05:30:23;;;;;;;;;8.25;4.00;;;;;10.21;63.15;100402.16;5050642;28;55000;-51
2022/12/30 05:32:49;;;;;;;;;6.00;5.00;;;;;10.23;63.51;100408.19;5053561;28;63395;-44
2022/12/30 05:35:14;;;;;;;;;7.00;5.00;;;;;10.22;63.46;100399.50;5039172;28;66220;-48
2022/12/30 05:37:40;;;;;;;;;8.50;5.50;;;;;10.21;63.71;100395.16;5037914;28;45630;-46
2022/12/30 05:40:06;;;;;;;;;4.50;4.00;;;;;10.19;63.99;100396.97;5040892;28;64270;-45
2022/12/30 05:42:31;;;;;;;;;8.50;3.25;;;;;10.17;64.20;100379.63;5043831;28;46371;-48
2022/12/30 05:44:57;;;;;;;;;9.00;4.00;;;;;10.21;63.59;100376.84;5039761;28;57341;-50
2022/12/30 05:47:22;;;;;;;;;5.00;4.00;;;;;10.21;64.24;100368.16;5043879;28;46292;-48
2022/12/30 05:49:48;;;;;;;;;7.25;3.75;;;;;10.26;63.38;100364.50;5040933;28;63768;-50
2022/12/30 05:52:14;;;;;;;;;3.75;3.75;;;;;10.29;63.42;100360.94;5044252;28;47189;-50
2022/12/30 05:54:40;;;;;;;;;4.25;2.00;;;;;10.31;63.27;100343.47;5039785;28;45863;-51
2022/12/30 05:57:06;;;;;;;;;3.00;3.00;;;;;10.32;63.38;100346.94;5047065;28;45433;-47
2022/12/30 05:59:31;;;;;;;;;4.50;3.75;;;;;10.33;63.80;100336.44;5042733;28;45384;-50
2022/12/30 06:01:57;;;;;;;;;3.50;2.00;;;;;10.35;64.49;100339.00;5050885;28;54776;-50
2022/12/30 06:04:22;;;;;;;;;6.00;3.00;;;;;10.35;63.57;100333.75;5048171;28;45387;-51
2022/12/30 06:06:47;;;;;;;;;7.00;4.00;;;;;10.35;64.07;100318.06;5041498;28;51109;-47
2022/12/30 06:09:13;;;;;;;;;4.00;3.50;;;;;10.38;63.76;100303.13;5050122;28;45297;-47
2022/12/30 06:11:38;;;;;;;;;3.75;2.25;;;;;10.36;63.55;100304.09;5045339;28;63208;-44
2022/12/30 06:14:03;;;;;;;;;3.25;2.25;;;;;10.42;63.65;100307.34;5056434;28;48824;-46
2022/12/30 06:16:29;;;;;;;;;2.75;2.00;;;;;10.46;63.81;100305.47;5042167;28;48678;-47
2022/12/30 06:18:54;;;;;;;;;6.00;2.75;;;;;10.47;64.34;100283.66;5056228;28;50808;-48
2022/12/30 06:21:19;;;;;;;;;4.00;2.00;;;;;10.53;63.53;100291.28;5047681;28;63387;-49
2022/12/30 06:23:45;;;;;;;;;5.50;2.00;;;;;10.55;63.64;100279.03;5049645;28;46675;-44
2022/12/30 06:26:10;;;;;;;;;3.00;1.50;;;;;10.56;63.76;100275.50;5044038;28;50866;-46
2022/12/30 06:28:35;;;;;;;;;4.50;3.00;;;;;10.57;63.64;100278.94;5054647;28;64286;-46
2022/12/30 06:31:01;;;;;;;;;4.00;2.75;;;;;10.58;64.04;100267.59;5045053;28;45541;-45
2022/12/30 06:33:26;;;;;;;;;3.00;2.00;;;;;10.57;64.46;100264.13;5055686;28;45319;-48
2022/12/30 06:35:52;;;;;;;;;7.25;3.75;;;;;10.60;63.83;100261.38;5044965;28;57612;-46
2022/12/30 06:38:18;;;;;;;;;3.00;2.75;;;;;10.60;64.45;100245.69;5045375;28;45320;-44
2022/12/30 06:40:44;;;;;;;;;5.00;3.00;;;;;10.59;64.29;100235.28;5043430;28;46109;-45
2022/12/30 06:43:09;;;;;;;;;4.00;2.00;;;;;10.59;63.96;100232.69;5060068;28;45802;-48
2022/12/30 06:45:35;;;;;;;;;2.50;2.25;;;;;10.63;63.62;100224.66;5047852;28;45574;-51
2022/12/30 06:48:01;;;;;;;;;3.25;1.75;;;;;10.64;63.68;100212.41;5052951;28;45604;-48
2022/12/30 06:50:26;;;;;;;;;2.25;2.00;;;;;10.70;63.86;100204.34;5045577;28;46426;-45
2022/12/30 06:52:51;;;;;;;;;2.50;2.50;;;;;10.72;63.68;100205.16;5053846;28;45247;-46
2022/12/30 06:55:17;;;;;;;;;5.25;2.00;;;;;10.72;63.68;100189.44;5050421;28;59789;-44
2022/12/30 06:57:42;;;;;;;;;5.50;2.50;;;;;10.74;63.65;100199.88;5045597;28;45343;-45
2022/12/30 07:00:08;;;;;;;;;3.25;2.00;;;;;10.78;63.64;100204.06;5050302;28;45942;-46
2022/12/30 07:02:34;;;;;;;;;3.00;3.00;;;;;10.79;63.71;100198.78;5051066;28;45272;-45
2022/12/30 07:04:59;;;;;;;;;4.00;2.00;;;;;10.82;63.69;100180.34;5047313;28;54035;-48
2022/12/30 07:07:25;;;;;;;;;5.75;3.00;;;;;10.85;63.88;100182.00;5049297;28;45470;-46
2022/12/30 07:09:50;;;;;;;;;6.00;3.00;;;;;10.89;63.26;100177.50;5057323;28;45275;-47
2022/12/30 07:12:16;;;;;;;;;3.25;1.00;;;;;10.89;63.15;100160.03;5049962;28;57096;-49
2022/12/30 07:14:41;;;;;;;;;4.50;2.00;;;;;10.89;63.60;100157.44;5043301;28;45494;-46
2022/12/30 07:17:07;;;;;;;;;3.00;3.00;;;;;10.90;63.34;100155.66;5049280;28;45400;-47
2022/12/30 07:19:32;;;;;;;;;8.00;2.50;;;;;10.93;63.47;100142.47;5051330;28;60527;-44
2022/12/30 07:21:58;;;;;;;;;5.50;2.00;;;;;10.94;63.46;100133.69;5045380;28;64750;-47
2022/12/30 07:24:23;;;;;;;;;3.75;2.50;;;;;10.96;63.50;100127.50;5049014;28;45415;-48
2022/12/30 07:26:48;;;;;;;;;4.50;2.00;;;;;10.99;63.44;100131.75;5044678;28;45355;-49
2022/12/30 07:29:14;;;;;;;;;6.00;2.00;;;;;11.01;63.42;100125.56;5042845;28;45411;-46
2022/12/30 07:31:40;;;;;;;;;3.75;2.00;;;;;11.04;63.15;100116.72;5041306;28;46285;-46
2022/12/30 07:34:05;;;;;;;;;3.00;2.00;;;;;11.07;62.99;100119.22;5048921;28;45351;-45
2022/12/30 07:36:31;;;;;;;;;4.00;1.50;;;;;11.11;62.86;100114.72;5065700;28;45336;-46
2022/12/30 07:38:57;;;;;;;;;2.75;2.00;;;;;11.12;63.00;100105.91;5041795;28;45958;-47
2022/12/30 07:41:23;;;;;;;;;5.25;1.00;;;;;11.14;63.02;100110.19;5042957;28;45620;-47
2022/12/30 07:43:49;;;;;;;;;3.75;2.50;;;;;11.16;63.19;100099.66;5052413;28;45244;-47
2022/12/30 07:46:14;;;;;;;;;4.25;2.00;;;;;11.16;63.09;100097.06;5048069;28;58347;-47
2022/12/30 07:48:39;;;;;;;;;2.75;2.75;;;;;11.14;62.65;100086.63;5046507;28;46775;-51
2022/12/30 07:51:07;;;;;;;;;1.50;1.50;;;;;11.16;62.70;100097.91;5053064;28;59913;-48
2022/12/30 07:53:32;;;;;;;;;4.50;1.50;;;;;11.18;62.63;100097.84;5051470;28;45465;-49
2022/12/30 07:55:57;;;;;;;;;3.00;1.75;;;;;11.19;62.55;100103.03;5045113;28;65101;-44
2022/12/30 07:58:24;;;;;;;;;0.00;0.00;;;;;11.21;62.58;100105.59;5047253;28;61602;-45
2022/12/30 08:00:49;;;;;;;;;1.00;1.00;;;;;11.22;62.23;100107.28;5048518;28;62598;-47
2022/12/30 08:03:15;;;;;;;;;3.75;2.00;;;;;11.24;62.25;100108.06;5049779;28;45320;-49
2022/12/30 08:05:40;;;;;;;;;2.50;1.00;;;;;11.19;62.26;100104.75;5047007;28;49534;-45
2022/12/30 08:08:07;;;;;;;;;2.75;0.00;;;;;11.24;62.07;100104.59;5041301;28;54035;-48
2022/12/30 08:10:32;;;;;;;;;4.00;1.00;;;;;11.25;62.39;100101.91;5049633;28;45835;-47
2022/12/30 08:12:57;;;;;;;;;2.00;1.00;;;;;11.27;62.25;100091.38;5042431;28;45225;-45
2022/12/30 08:15:23;;;;;;;;;2.25;2.25;;;;;11.31;61.83;100079.84;5049841;28;64526;-47
2022/12/30 08:17:48;;;;;;;;;5.00;1.00;;;;;11.33;61.73;100075.41;5054033;28;45419;-51
2022/12/30 08:20:14;;;;;;;;;3.25;1.00;;;;;11.31;61.97;100072.84;5045406;28;45376;-45
2022/12/30 08:22:39;;;;;;;;;3.00;1.00;;;;;11.29;61.69;100065.97;5040319;28;45226;-46
2022/12/30 08:25:05;;;;;;;;;2.75;1.25;;;;;11.27;62.24;100060.78;5040813;28;45586;-47
2022/12/30 08:27:32;;;;;;;;;2.50;1.00;;;;;11.29;62.24;100058.97;5054725;28;46598;-47
2022/12/30 08:29:57;;;;;;;;;4.50;1.00;;;;;11.31;62.45;100056.28;5051444;28;45480;-45
2022/12/30 08:32:23;;;;;;;;;4.00;1.75;;;;;11.30;62.55;100059.84;5044497;28;47360;-49
2022/12/30 08:34:48;;;;;;;;;2.75;1.00;;;;;11.29;62.73;100053.72;5047344;28;45589;-46
2022/12/30 08:37:13;;;;;;;;;5.00;1.00;;;;;11.31;62.96;100043.19;5047412;28;63126;-48
2022/12/30 08:39:39;;;;;;;;;5.00;2.00;;;;;11.32;63.20;100044.91;5043739;28;53099;-45
2022/12/30 08:42:04;;;;;;;;;2.00;2.00;;;;;11.33;63.89;100030.88;5045738;28;45391;-44
2022/12/30 08:44:29;;;;;;;;;3.50;1.00;;;;;11.27;63.77;100031.13;5051621;28;60880;-44
2022/12/30 08:46:55;;;;;;;;;3.25;1.00;;;;;11.24;64.47;100026.03;5047759;28;46521;-48
2022/12/30 08:49:20;;;;;;;;;1.25;1.00;;;;;11.17;64.24;100010.56;5047312;28;45305;-53
2022/12/30 08:51:46;;;;;;;;;1.50;1.50;;;;;11.13;64.42;100019.44;5042910;28;45409;-44
2022/12/30 08:54:11;;;;;;;;;2.50;1.00;;;;;11.10;64.49;99998.66;5052724;28;45555;-47
2022/12/30 08:56:39;;;;;;;;;2.00;1.75;;;;;11.08;64.59;100002.22;5041597;28;46150;-49
2022/12/30 08:59:05;;;;;;;;;3.00;1.25;;;;;11.04;65.38;100011.13;5031555;28;45914;-47
2022/12/30 09:01:40;;;;;;;;;2.50;2.00;;;;;10.96;65.60;99982.63;5051333;28;45157;-48
2022/12/30 09:04:06;;;;;;;;;3.00;1.00;;;;;10.93;65.45;99993.25;5047859;28;45452;-48
2022/12/30 09:06:33;;;;;;;;;2.25;1.00;;;;;10.89;66.39;99981.16;5044747;28;45485;-50
2022/12/30 09:08:59;;;;;;;;;2.50;1.50;;;;;10.82;66.39;99972.75;5040038;28;45360;-49
2022/12/30 09:11:30;;;;;;;;;3.00;1.50;;;;;10.79;67.04;99959.75;5045646;28;45552;-46
2022/12/30 09:13:56;;;;;;;;;4.25;1.00;;;;;10.75;67.03;99961.66;5038906;28;45532;-48
2022/12/30 09:16:23;;;;;;;;;2.75;1.00;;;;;10.73;68.07;99957.38;5042617;28;46436;-46
2022/12/30 09:18:50;;;;;;;;;2.50;2.50;;;;;10.68;67.79;99935.78;5040044;28;46087;-50
2022/12/30 09:21:16;;;;;;;;;4.25;3.00;;;;;10.63;67.76;99942.06;5042818;28;45376;-50
2022/12/30 09:23:41;;;;;;;;;1.75;1.75;;;;;10.59;67.76;99916.09;5054327;28;56126;-48
2022/12/30 09:26:08;;;;;;;;;1.50;1.50;;;;;10.60;67.79;99928.25;5053454;28;53162;-46
2022/12/30 09:28:33;;;;;;;;;1.25;1.25;;;;;10.59;67.99;99937.03;5048783;28;45286;-49
2022/12/30 09:30:59;;;;;;;;;3.00;1.00;;;;;10.57;67.94;99931.84;5029503;28;45470;-45
2022/12/30 09:33:24;;;;;;;;;3.00;1.00;;;;;10.55;68.37;99935.41;5039321;28;53850;-48
2022/12/30 09:35:50;;;;;;;;;3.50;2.75;;;;;10.50;69.12;99925.16;5047099;28;58256;-45
2022/12/30 09:38:15;;;;;;;;;5.25;1.50;;;;;10.50;67.98;99916.44;5040412;28;45414;-44
2022/12/30 09:41:03;;;;;;;;;1.25;1.25;;;;;10.51;68.25;99910.31;5043082;28;57588;-48
2022/12/30 09:43:42;;;;;;;;;1.00;1.00;;;;;10.48;68.69;99906.03;5024581;28;45413;-46
2022/12/30 09:46:29;;;;;;;;;2.75;1.50;;;;;10.47;69.09;99898.28;5041599;28;47002;-45
2022/12/30 09:49:01;;;;;;;;;3.00;1.00;;;;;10.41;69.02;99886.25;5051681;28;45941;-46
2022/12/30 09:51:37;;;;;;;;;1.25;1.25;;;;;10.43;68.71;99885.31;5041436;28;45649;-46
2022/12/30 09:54:09;;;;;;;;;3.00;2.00;;;;;10.47;70.23;99888.66;5051696;28;45244;-44
2022/12/30 09:56:37;;;;;;;;;2.50;2.50;;;;;10.50;69.64;99885.03;5038695;28;46140;-47
2022/12/30 09:59:13;;;;;;;;;4.25;1.50;;;;;10.53;69.31;99891.00;5038849;28;45324;-46
2022/12/30 10:01:45;;;;;;;;;2.00;2.00;;;;;10.55;68.87;99878.75;5047284;28;45249;-47
2022/12/30 10:04:15;;;;;;;;;0.75;0.75;;;;;10.58;69.46;99854.19;5041347;28;45411;-44
2022/12/30 10:06:51;;;;;;;;;2.00;2.00;;;;;10.59;69.03;99851.53;5047703;28;45525;-44
2022/12/30 10:09:49;;;;;;;;;6.25;4.50;;;;;10.62;69.60;99851.41;5051793;28;46079;-45
2022/12/30 10:12:20;;;;;;;;;2.75;2.00;;;;;10.66;69.64;99846.91;5047500;28;45413;-44
2022/12/30 10:14:49;;;;;;;;;3.00;2.00;;;;;10.68;69.46;99833.72;5046050;28;45205;-45
2022/12/30 10:17:24;;;;;;;;;2.25;1.00;;;;;10.69;69.40;99830.22;5044310;28;45453;-44
2022/12/30 10:20:01;;;;;;;;;3.75;1.25;;;;;10.70;69.31;99805.75;5043868;28;45384;-45
2022/12/30 10:22:51;;;;;;;;;5.75;2.00;;;;;10.71;69.65;99791.75;5050754;28;45315;-48
2022/12/30 10:25:59;;;;;;;;;2.25;1.00;;;;;10.72;69.54;99794.28;5046169;28;45445;-46
2022/12/30 10:28:29;;;;;;;;;2.00;1.00;;;;;10.73;71.04;99787.28;5043262;28;46296;-46
2022/12/30 10:30:55;;;;;;;;;3.25;1.00;;;;;10.74;70.14;99775.91;5044866;28;45715;-46
2022/12/30 10:33:22;;;;;;;;;1.75;1.50;;;;;10.77;70.18;99770.56;5045717;28;45983;-48
2022/12/30 10:35:51;;;;;;;;;2.25;2.00;;;;;10.76;70.75;99780.16;5045770;28;45376;-45
2022/12/30 10:38:21;;;;;;;;;4.00;3.00;;;;;10.81;70.41;99793.03;5037795;28;46537;-45
2022/12/30 10:41:10;;;;;;;;;1.75;1.75;;;;;10.86;70.17;99782.38;5047055;28;45502;-46
2022/12/30 10:44:24;;;;;;;;;2.00;1.25;;;;;10.87;71.03;99761.38;5051466;28;45364;-45
2022/12/30 10:47:13;;;;;;;;;2.00;2.00;;;;;10.93;70.41;99768.97;5040554;28;45458;-47
2022/12/30 10:50:17;;;;;;;;;2.00;2.00;;;;;10.97;70.42;99772.28;5022240;28;45360;-45
2022/12/30 10:52:42;;;;;;;;;4.00;2.00;;;;;11.04;70.67;99789.44;5029913;28;45577;-45
2022/12/30 10:55:25;;;;;;;;;3.75;3.00;;;;;11.09;71.83;99737.72;5055761;28;45404;-48
2022/12/30 10:58:20;;;;;;;;;1.00;1.00;;;;;11.13;70.98;99731.41;5051172;28;45450;-45
2022/12/30 11:00:46;;;;;;;;;1.00;1.00;;;;;11.20;71.17;99735.44;5041757;28;45554;-45
2022/12/30 11:03:30;;;;;;;;;3.50;2.00;;;;;11.26;70.59;99731.72;5050619;28;64897;-46
2022/12/30 11:06:06;;;;;;;;;1.00;1.00;;;;;11.32;70.49;99733.19;5045382;28;45442;-45
2022/12/30 11:08:32;;;;;;;;;1.00;1.00;;;;;11.38;70.74;99722.41;5039957;28;45558;-44
2022/12/30 11:10:59;;;;;;;;;2.00;2.00;;;;;11.40;71.59;99673.41;5043968;28;67343;-45
2022/12/30 11:16:10;;;;;;;;;4.25;2.00;;;;;11.48;70.87;99709.75;5052493;28;45233;-47
2022/12/30 11:18:36;;;;;;;;;3.00;3.00;;;;;11.53;70.58;99715.63;5053700;28;45317;-47
2022/12/30 11:21:01;;;;;;;;;3.00;2.00;;;;;11.55;70.76;99691.03;5043759;28;45446;-45
2022/12/30 11:23:31;;;;;;;;;1.00;1.00;;;;;11.61;70.93;99683.81;5041698;28;60405;-45
2022/12/30 11:25:58;;;;;;;;;6.75;2.00;;;;;11.66;70.94;99690.53;5048269;28;45435;-45
2022/12/30 11:28:27;;;;;;;;;2.00;1.00;;;;;11.67;71.23;99696.59;5044376;28;45253;-48
2022/12/30 11:30:52;;;;;;;;;3.00;2.50;;;;;11.71;70.53;99692.94;5053893;28;46175;-45
2022/12/30 11:33:30;;;;;;;;;3.00;2.50;;;;;11.74;70.63;99669.19;5044329;28;45248;-45
2022/12/30 11:36:14;;;;;;;;;1.00;1.00;;;;;11.81;71.57;99667.09;5050336;28;45428;-47
2022/12/30 11:38:49;;;;;;;;;3.00;1.25;;;;;11.82;70.61;99680.13;5047404;28;45558;-46
2022/12/30 11:41:18;;;;;;;;;1.00;1.00;;;;;11.88;70.30;99669.38;5048232;28;46402;-45
2022/12/30 11:43:44;;;;;;;;;2.25;1.75;;;;;11.90;70.80;99659.69;5049558;28;45705;-49
2022/12/30 11:46:11;;;;;;;;;3.00;1.75;;;;;11.92;70.38;99663.06;5056558;28;45477;-47
2022/12/30 11:48:45;;;;;;;;;2.00;2.00;;;;;11.99;71.29;99634.78;5041009;28;45486;-45
2022/12/30 11:51:20;;;;;;;;;2.75;2.25;;;;;12.02;70.87;99668.69;5034234;28;47648;-48
2022/12/30 11:53:46;;;;;;;;;0.25;0.25;;;;;12.03;70.65;99652.03;5047375;28;45817;-46
2022/12/30 11:56:11;;;;;;;;;1.75;1.75;;;;;12.07;70.72;99657.97;5045623;28;45389;-44
2022/12/30 11:58:38;;;;;;;;;5.00;1.75;;;;;12.10;70.52;99642.09;5056819;28;45331;-46
2022/12/30 12:01:07;;;;;;;;;22.00;19.00;;;;;12.12;70.56;99642.88;5049200;28;71373;-48
2022/12/30 12:03:46;;;;;;;;;16.75;14.50;;;;;12.18;70.67;99641.69;5052487;28;45912;-48
2022/12/30 12:06:11;;;;;;;;;3.00;2.00;;;;;12.18;71.09;99650.41;5051568;28;45260;-49
2022/12/30 12:09:01;;;;;;;;;1.00;1.00;;;;;12.24;71.08;99655.34;5058389;28;45423;-49
2022/12/30 12:11:36;;;;;;;;;2.75;1.00;;;;;12.27;71.92;99634.22;5048205;28;45315;-47
2022/12/30 12:14:27;;;;;;;;;3.00;1.25;;;;;12.31;71.22;99643.63;5044869;28;46097;-45
2022/12/30 12:17:12;;;;;;;;;2.00;1.00;;;;;12.37;70.98;99646.84;5053765;28;45426;-49
2022/12/30 12:19:47;;;;;;;;;2.00;2.00;;;;;12.39;71.38;99648.44;5049425;28;45566;-51
2022/12/30 12:22:21;;;;;;;;;1.25;1.25;;;;;12.44;70.98;99635.09;5051703;28;47466;-49
2022/12/30 12:24:54;;;;;;;;;1.00;1.00;;;;;12.46;71.44;99641.94;5048237;28;45900;-46
2022/12/30 12:27:21;;;;;;;;;1.00;1.00;;;;;12.50;71.25;99646.13;5040444;28;45349;-46
2022/12/30 12:29:46;;;;;;;;;1.25;1.25;;;;;12.52;71.12;99633.78;5035045;28;45491;-45